createdAt,value
2023-03-22T05:26:09.207Z,100172.34
2023-03-22T05:30:13.592Z,100172.34
2023-03-22T05:34:17.608Z,100168.44
2023-03-22T05:38:23.146Z,100174.34
2023-03-22T05:42:26.780Z,100179.00
2023-03-22T05:46:30.318Z,100176.78
2023-03-22T05:50:36.001Z,100186.66
2023-03-22T05:54:39.996Z,100191.59
2023-03-22T05:58:45.145Z,100200.88
2023-03-22T06:02:49.698Z,100218.91
2023-03-22T06:06:54.142Z,100228.28
2023-03-22T06:10:58.514Z,100217.19
2023-03-22T06:15:02.515Z,100228.72
2023-03-22T06:19:08.396Z,100232.97
2023-03-22T06:23:11.793Z,100232.25
2023-03-22T06:27:15.118Z,100241.63
2023-03-22T06:31:39.360Z,100237.47
2023-03-22T06:35:42.275Z,100239.09
2023-03-22T06:39:46.744Z,100236.00
2023-03-22T06:43:50.225Z,100243.44
2023-03-22T06:47:57.780Z,100255.97
2023-03-22T06:52:01.530Z,100245.03
2023-03-22T06:56:05.960Z,100253.91
2023-03-22T07:00:13.274Z,100251.53
2023-03-22T07:04:21.086Z,100248.47
2023-03-22T07:08:26.095Z,100249.22
2023-03-22T07:12:32.521Z,100239.94
2023-03-22T07:17:01.485Z,100240.87
2023-03-22T07:21:24.415Z,100244.59
2023-03-22T07:26:07.471Z,100245.28
2023-03-22T07:30:38.899Z,100256.25
2023-03-22T07:34:51.702Z,100255.59
2023-03-22T07:39:00.387Z,100261.19
2023-03-22T07:43:17.798Z,100259.38
2023-03-22T07:52:34.770Z,100256.50
2023-03-22T07:57:08.837Z,100257.50
2023-03-22T08:01:18.450Z,100241.91
2023-03-22T08:05:29.901Z,100249.81
2023-03-22T08:09:47.278Z,100260.66
2023-03-22T08:14:27.449Z,100259.38
2023-03-22T08:19:13.143Z,100261.66
2023-03-22T08:23:42.045Z,100257.00
2023-03-22T08:28:14.514Z,100250.25
2023-03-22T08:32:41.771Z,100256.66
2023-03-22T08:36:50.771Z,100253.34
2023-03-22T08:41:55.336Z,100243.72
2023-03-22T08:47:25.668Z,100248.75
2023-03-22T08:56:33.709Z,100253.25
2023-03-22T09:10:20.843Z,100247.53
2023-03-22T09:14:25.090Z,100253.75
2023-03-22T09:19:34.049Z,100245.69
2023-03-22T09:29:18.494Z,100252.69
2023-03-22T09:33:44.830Z,100251.44
2023-03-22T09:37:55.132Z,100249.41
2023-03-22T09:42:08.999Z,100233.53
2023-03-22T09:46:44.919Z,100242.81
2023-03-22T09:50:53.028Z,100241.03
2023-03-22T09:55:42.384Z,100238.22
2023-03-22T10:00:23.356Z,100234.44
2023-03-22T10:04:51.240Z,100240.31
2023-03-22T10:09:10.692Z,100236.94
2023-03-22T10:14:11.926Z,100242.06
2023-03-22T10:18:55.728Z,100235.50
2023-03-22T10:23:02.326Z,100232.31
2023-03-22T10:32:22.187Z,100226.72
2023-03-22T10:36:40.890Z,100227.03
2023-03-22T10:40:53.746Z,100217.75
2023-03-22T10:45:22.696Z,100223.66
2023-03-22T10:49:56.365Z,100216.00
2023-03-22T10:54:27.982Z,100214.38
2023-03-22T10:58:51.535Z,100206.44
2023-03-22T11:03:00.353Z,100204.09
2023-03-22T11:07:03.647Z,100199.72
2023-03-22T11:16:05.796Z,100182.22
2023-03-22T11:20:24.161Z,100174.47
2023-03-22T11:24:47.204Z,100167.56
2023-03-22T11:29:30.376Z,100166.56
2023-03-22T11:33:39.254Z,100164.44
2023-03-22T11:38:07.360Z,100164.47
2023-03-22T11:42:19.915Z,100155.63
2023-03-22T11:51:35.712Z,100153.59
2023-03-22T11:56:33.688Z,100145.63
2023-03-22T12:01:03.314Z,100142.75
2023-03-22T12:10:51.912Z,100145.50
2023-03-22T12:15:42.775Z,100142.81
2023-03-22T12:20:15.932Z,100145.56
2023-03-22T12:24:43.157Z,100144.50
2023-03-22T12:28:47.304Z,100142.44
2023-03-22T12:33:33.169Z,100155.53
2023-03-22T12:37:41.038Z,100154.53
2023-03-22T12:41:49.486Z,100158.72
2023-03-22T12:45:58.394Z,100152.00
2023-03-22T12:50:13.352Z,100156.25
2023-03-22T12:54:23.838Z,100152.47
2023-03-22T12:58:45.359Z,100154.94
2023-03-22T13:03:59.985Z,100146.97
2023-03-22T13:08:23.245Z,100146.63
2023-03-22T13:17:02.204Z,100134.91
2023-03-22T13:21:19.346Z,100135.41
2023-03-22T13:25:37.728Z,100138.69
2023-03-22T13:29:42.315Z,100142.44
2023-03-22T13:33:54.487Z,100135.09
2023-03-22T13:38:14.124Z,100118.34
2023-03-22T13:42:23.034Z,100126.00
2023-03-22T13:46:45.427Z,100119.59
2023-03-22T13:51:08.271Z,100122.72
2023-03-22T13:55:35.269Z,100114.53
2023-03-22T14:00:14.403Z,100109.75
2023-03-22T14:04:29.802Z,100112.00
2023-03-22T14:08:35.051Z,100106.25
2023-03-22T14:12:51.308Z,100099.72
2023-03-22T14:17:27.207Z,100103.41
